Time;durP1;ratioP1;P1;durP2;ratioP2;P2;SDS_P1;SDS_P2;PMS_P1;PMS_P2;Temp;Humidity;BMP_temperature;BMP_pressure;BME280_temperature;BME280_humidity;BME280_pressure;Samples;Min_cycle;Max_cycle;Signal;HPM_P1;HPM_P2
2022/01/03 00:00:22;;;;;;;6.23;1.87;;;13.90;98.20;;;;;;5098765;28;20180;-74
2022/01/03 00:02:49;;;;;;;5.93;1.60;;;13.90;97.70;;;;;;5092451;28;20672;-74
2022/01/03 00:05:24;;;;;;;5.93;1.97;;;13.90;97.10;;;;;;5091322;28;20252;-74
2022/01/03 00:07:50;;;;;;;5.07;1.80;;;14.00;96.40;;;;;;5072320;28;20267;-74
2022/01/03 00:10:18;;;;;;;6.43;1.97;;;13.90;96.10;;;;;;5092084;28;20196;-74
2022/01/03 00:12:44;;;;;;;4.87;1.70;;;14.00;95.20;;;;;;5074722;28;20173;-74
2022/01/03 00:15:13;;;;;;;7.60;2.30;;;14.00;95.60;;;;;;5091281;28;20172;-75
2022/01/03 00:17:40;;;;;;;7.37;2.10;;;14.00;95.60;;;;;;5092317;28;20258;-74
2022/01/03 00:20:08;;;;;;;9.77;2.13;;;14.00;95.00;;;;;;5084864;28;20179;-75
2022/01/03 00:22:55;;;;;;;6.80;1.97;;;14.00;95.00;;;;;;5090640;28;20173;-74
2022/01/03 00:25:22;;;;;;;5.93;2.20;;;14.00;95.30;;;;;;5085457;28;20176;-75
2022/01/03 00:28:02;;;;;;;9.00;2.50;;;14.00;95.50;;;;;;5084546;28;20870;-73
2022/01/03 00:30:30;;;;;;;8.83;2.30;;;14.00;95.50;;;;;;5073684;28;20211;-74
2022/01/03 00:32:57;;;;;;;6.77;2.00;;;14.00;94.90;;;;;;5091387;28;20219;-74
2022/01/03 00:35:23;;;;;;;1.60;0.70;;;14.00;92.40;;;;;;5090089;28;20202;-74
2022/01/03 00:37:50;;;;;;;3.90;0.90;;;13.60;90.50;;;;;;5091751;28;20196;-75
2022/01/03 00:40:19;;;;;;;4.50;1.20;;;12.90;99.90;;;;;;5092023;28;20192;-74
2022/01/03 00:42:45;;;;;;;2.83;1.10;;;12.30;99.90;;;;;;5089959;28;20599;-74
2022/01/03 00:45:11;;;;;;;10.60;2.23;;;11.60;99.90;;;;;;5089166;28;20215;-73
2022/01/03 00:47:38;;;;;;;2.30;1.00;;;11.00;99.90;;;;;;5090448;28;20275;-73
2022/01/03 00:50:08;;;;;;;5.37;1.30;;;10.70;99.90;;;;;;5091651;28;20172;-73
2022/01/03 00:52:33;;;;;;;4.33;1.30;;;10.60;99.90;;;;;;5089677;28;20708;-74
2022/01/03 00:55:00;;;;;;;5.17;1.00;;;10.40;99.90;;;;;;5091413;28;20275;-73
2022/01/03 00:57:48;;;;;;;1.73;0.87;;;10.40;99.90;;;;;;5090139;28;20554;-73
2022/01/03 01:00:15;;;;;;;4.40;1.00;;;10.40;99.90;;;;;;5088515;28;20182;-74
2022/01/03 01:02:56;;;;;;;2.90;1.10;;;10.40;99.90;;;;;;5090364;28;20624;-74
2022/01/03 01:05:23;;;;;;;2.27;0.90;;;10.40;99.90;;;;;;5056406;28;20187;-74
2022/01/03 01:07:54;;;;;;;2.97;1.10;;;10.40;99.90;;;;;;5073893;28;20276;-74
2022/01/03 01:10:21;;;;;;;5.87;1.20;;;10.40;99.90;;;;;;5091570;28;20275;-74
2022/01/03 01:12:47;;;;;;;3.03;1.10;;;10.40;99.90;;;;;;5091757;28;20172;-73
2022/01/03 01:15:14;;;;;;;2.07;1.00;;;10.30;99.90;;;;;;5089844;28;20692;-73
2022/01/03 01:17:41;;;;;;;4.20;1.17;;;10.40;99.90;;;;;;5105740;28;20208;-73
2022/01/03 01:20:09;;;;;;;2.07;0.90;;;10.40;99.90;;;;;;5091079;28;20176;-74
2022/01/03 01:22:35;;;;;;;5.20;1.10;;;10.30;99.90;;;;;;5089643;28;20238;-73
2022/01/03 01:27:48;;;;;;;5.00;1.00;;;10.30;99.90;;;;;;5070583;28;20236;-73
2022/01/03 01:30:20;;;;;;;2.70;1.07;;;10.30;99.90;;;;;;5089458;28;20724;-73
2022/01/03 01:33:04;;;;;;;3.70;1.10;;;10.30;99.90;;;;;;5089629;28;20676;-73
2022/01/03 01:35:37;;;;;;;2.13;0.80;;;10.30;99.90;;;;;;5069255;28;20193;-73
2022/01/03 01:38:04;;;;;;;3.20;0.70;;;10.40;99.90;;;;;;5105311;28;20200;-73
2022/01/03 01:40:32;;;;;;;2.37;0.80;;;10.40;99.90;;;;;;5089625;28;20182;-74
2022/01/03 01:43:01;;;;;;;3.60;1.03;;;10.40;99.90;;;;;;5089683;28;20169;-73
2022/01/03 01:45:27;;;;;;;1.97;0.87;;;10.40;99.90;;;;;;5069054;28;20873;-73
2022/01/03 01:47:59;;;;;;;3.67;1.00;;;10.40;99.90;;;;;;5088952;28;20235;-73
2022/01/03 01:50:28;;;;;;;3.47;1.00;;;10.40;99.90;;;;;;5089086;28;20756;-73
2022/01/03 01:52:56;;;;;;;2.17;0.90;;;10.40;99.90;;;;;;5071962;28;20636;-73
2022/01/03 01:55:23;;;;;;;3.90;1.10;;;10.40;99.90;;;;;;5089456;28;20188;-73
2022/01/03 01:58:29;;;;;;;4.70;1.17;;;10.40;99.90;;;;;;5069354;28;20613;-73
2022/01/03 02:01:03;;;;;;;4.27;1.13;;;10.40;99.90;;;;;;5086563;28;20272;-73
2022/01/03 02:03:38;;;;;;;3.70;1.00;;;10.40;99.90;;;;;;5072328;28;20864;-73
2022/01/03 02:06:21;;;;;;;3.23;1.00;;;10.40;99.90;;;;;;5072327;28;20180;-74
2022/01/03 02:09:05;;;;;;;1.93;1.10;;;10.30;99.90;;;;;;5069573;28;20752;-73
2022/01/03 02:11:42;;;;;;;3.23;1.30;;;10.40;99.90;;;;;;5070854;28;20267;-73
2022/01/03 02:14:09;;;;;;;4.23;1.00;;;10.30;99.90;;;;;;5077840;28;20512;-72
2022/01/03 02:16:38;;;;;;;2.67;1.00;;;10.30;99.90;;;;;;5086228;28;20687;-73
2022/01/03 02:19:04;;;;;;;3.33;1.00;;;10.40;99.90;;;;;;5072620;28;20574;-73
2022/01/03 02:21:31;;;;;;;2.80;1.00;;;10.30;99.90;;;;;;5089455;28;20203;-73
2022/01/03 02:23:57;;;;;;;2.93;0.90;;;10.30;99.90;;;;;;5076365;28;20185;-73
2022/01/03 02:26:23;;;;;;;2.13;1.10;;;10.30;99.90;;;;;;5086371;28;20172;-73
2022/01/03 02:28:50;;;;;;;4.57;1.10;;;10.30;99.90;;;;;;5091538;28;20692;-74
2022/01/03 02:31:17;;;;;;;4.53;1.13;;;10.30;99.90;;;;;;5090162;28;20207;-74
2022/01/03 02:33:44;;;;;;;4.07;1.30;;;10.30;99.90;;;;;;5091652;28;20206;-73
2022/01/03 02:36:12;;;;;;;3.47;1.00;;;10.30;99.90;;;;;;5088367;28;21011;-73
2022/01/03 02:38:38;;;;;;;4.10;1.20;;;10.30;99.90;;;;;;5080544;28;20682;-74
2022/01/03 02:41:04;;;;;;;3.40;1.23;;;10.30;99.90;;;;;;5061978;28;20225;-73
2022/01/03 02:43:31;;;;;;;4.10;1.20;;;10.40;99.90;;;;;;5090369;28;20180;-74
2022/01/03 02:45:58;;;;;;;2.93;1.17;;;10.40;99.90;;;;;;5070190;28;20173;-74
2022/01/03 02:48:26;;;;;;;4.37;1.00;;;10.40;99.90;;;;;;5073098;28;20563;-74
2022/01/03 02:50:53;;;;;;;5.80;1.47;;;10.40;99.90;;;;;;5086213;28;20283;-74
2022/01/03 02:53:20;;;;;;;3.67;1.40;;;10.40;99.90;;;;;;5074872;28;20295;-74
2022/01/03 02:55:47;;;;;;;9.33;1.77;;;10.40;99.90;;;;;;5077005;28;20182;-73
2022/01/03 02:58:14;;;;;;;5.53;1.33;;;10.40;99.90;;;;;;5076288;28;20201;-74
2022/01/03 03:00:50;;;;;;;6.53;1.40;;;10.40;99.90;;;;;;5070115;28;20551;-74
2022/01/03 03:03:28;;;;;;;3.60;1.57;;;10.40;99.90;;;;;;5075285;28;20679;-73
2022/01/03 03:05:58;;;;;;;5.10;1.30;;;10.40;99.90;;;;;;5070924;28;20732;-73
2022/01/03 03:08:24;;;;;;;3.13;1.00;;;10.40;99.90;;;;;;5090087;28;20223;-73
2022/01/03 03:10:50;;;;;;;5.73;1.13;;;10.40;99.90;;;;;;5088772;28;20211;-72
2022/01/03 03:13:16;;;;;;;3.40;1.00;;;10.40;99.90;;;;;;5089608;28;20176;-73
2022/01/03 03:15:42;;;;;;;4.57;1.30;;;10.50;99.90;;;;;;5083170;28;20537;-72
2022/01/03 03:18:10;;;;;;;2.93;1.03;;;10.50;99.90;;;;;;5050546;28;20207;-74
2022/01/03 03:20:37;;;;;;;5.40;1.53;;;10.40;99.90;;;;;;5070366;28;20203;-72
2022/01/03 03:23:03;;;;;;;4.07;1.10;;;10.40;99.90;;;;;;5087282;28;20226;-72
2022/01/03 03:25:35;;;;;;;2.00;0.93;;;10.50;99.90;;;;;;5055114;28;20177;-72
2022/01/03 03:28:10;;;;;;;3.73;1.10;;;10.50;99.90;;;;;;5087578;28;20285;-72
2022/01/03 03:30:43;;;;;;;3.67;1.03;;;10.50;99.90;;;;;;5065248;28;20418;-72
2022/01/03 03:33:18;;;;;;;3.43;1.10;;;10.40;99.90;;;;;;5090883;28;20198;-72
2022/01/03 03:35:50;;;;;;;2.10;0.90;;;10.40;99.90;;;;;;5083549;28;20201;-73
2022/01/03 03:38:18;;;;;;;5.40;1.20;;;10.40;99.90;;;;;;5072379;28;20734;-73
2022/01/03 03:40:47;;;;;;;1.27;0.80;;;10.40;99.90;;;;;;5074160;28;20546;-72
2022/01/03 03:43:14;;;;;;;2.53;0.90;;;10.40;99.90;;;;;;5089582;28;20267;-73
2022/01/03 03:45:40;;;;;;;3.53;1.40;;;10.40;99.90;;;;;;5073473;28;20180;-73
2022/01/03 03:48:06;;;;;;;3.70;1.30;;;10.40;99.90;;;;;;5100494;28;20212;-72
2022/01/03 03:50:32;;;;;;;2.43;1.10;;;10.40;99.90;;;;;;5079870;28;20193;-72
2022/01/03 03:52:58;;;;;;;2.70;1.00;;;10.40;99.90;;;;;;5089521;28;20669;-73
2022/01/03 03:55:24;;;;;;;4.53;1.10;;;10.50;99.90;;;;;;5072443;28;20268;-72
2022/01/03 03:57:50;;;;;;;4.00;1.10;;;10.40;99.90;;;;;;5089371;28;20199;-72
2022/01/03 04:00:18;;;;;;;2.17;1.00;;;10.40;99.90;;;;;;5078727;28;20181;-72
2022/01/03 04:02:49;;;;;;;3.43;1.10;;;10.40;99.90;;;;;;5087742;28;20161;-72
2022/01/03 04:05:16;;;;;;;5.27;1.17;;;10.40;99.90;;;;;;5087665;28;20185;-72
2022/01/03 04:07:43;;;;;;;4.03;1.20;;;10.50;99.90;;;;;;5090413;28;20287;-72
2022/01/03 04:10:11;;;;;;;4.37;1.23;;;10.50;99.90;;;;;;5091308;28;20350;-72
2022/01/03 04:12:38;;;;;;;4.10;1.20;;;10.40;99.90;;;;;;5107632;27;20263;-72
2022/01/03 04:15:06;;;;;;;4.07;1.27;;;10.50;99.90;;;;;;5091241;28;20250;-72
2022/01/03 04:17:33;;;;;;;3.27;1.10;;;10.50;99.90;;;;;;5095483;28;20197;-72
2022/01/03 04:20:00;;;;;;;5.23;2.13;;;10.50;99.90;;;;;;5091184;28;20177;-73
2022/01/03 04:22:26;;;;;;;9.87;3.10;;;10.50;99.90;;;;;;5074660;28;20195;-72
2022/01/03 04:24:52;;;;;;;6.10;3.10;;;10.50;99.90;;;;;;5066600;28;20239;-72
2022/01/03 04:27:19;;;;;;;5.50;2.23;;;10.60;99.90;;;;;;5052885;28;20680;-72
2022/01/03 04:29:45;;;;;;;5.13;1.90;;;10.60;99.90;;;;;;5084969;28;20200;-73
2022/01/03 04:32:11;;;;;;;4.40;1.40;;;10.60;99.90;;;;;;5056051;28;20204;-72
2022/01/03 04:34:37;;;;;;;3.73;1.57;;;10.60;99.90;;;;;;5069667;28;20185;-73
2022/01/03 04:37:03;;;;;;;4.17;1.53;;;10.60;99.90;;;;;;5081078;28;20614;-73
2022/01/03 04:39:30;;;;;;;3.87;1.60;;;10.60;99.90;;;;;;5082832;28;20255;-73
2022/01/03 04:41:56;;;;;;;3.63;1.37;;;10.60;99.90;;;;;;5099697;28;20200;-72
2022/01/03 04:44:22;;;;;;;4.30;1.40;;;10.70;99.90;;;;;;5075039;28;20173;-72
2022/01/03 04:46:48;;;;;;;5.50;1.50;;;10.70;99.90;;;;;;5086890;28;20204;-72
2022/01/03 04:49:15;;;;;;;7.53;1.47;;;10.70;99.90;;;;;;5054656;28;20276;-73
2022/01/03 04:51:41;;;;;;;5.57;1.30;;;10.70;99.90;;;;;;5088589;28;20291;-72
2022/01/03 04:54:07;;;;;;;5.07;1.53;;;10.70;99.90;;;;;;5089922;28;20169;-72
2022/01/03 04:56:33;;;;;;;4.43;1.60;;;10.70;99.90;;;;;;5073480;28;20226;-72
2022/01/03 04:59:02;;;;;;;5.47;1.70;;;10.80;99.90;;;;;;5077077;28;20554;-72
2022/01/03 05:01:29;;;;;;;6.53;1.57;;;10.80;99.90;;;;;;5068000;28;20564;-72
2022/01/03 05:03:55;;;;;;;5.30;1.60;;;10.90;99.90;;;;;;5088574;28;20198;-73
2022/01/03 05:06:21;;;;;;;8.03;1.97;;;10.90;99.90;;;;;;5078313;28;20210;-72
2022/01/03 05:08:48;;;;;;;5.80;1.90;;;10.90;99.90;;;;;;5069327;28;20696;-72
2022/01/03 05:11:15;;;;;;;5.00;1.53;;;10.90;99.90;;;;;;5065783;28;20551;-73
2022/01/03 05:13:41;;;;;;;8.37;2.20;;;10.90;99.90;;;;;;5084552;28;20180;-72
2022/01/03 05:16:07;;;;;;;8.00;2.30;;;10.80;99.90;;;;;;5088979;28;20176;-72
2022/01/03 05:18:33;;;;;;;8.10;2.50;;;10.80;99.90;;;;;;5081464;28;20680;-72
2022/01/03 05:21:00;;;;;;;7.83;2.33;;;10.80;99.90;;;;;;5086027;28;20191;-72
2022/01/03 05:23:26;;;;;;;9.43;2.20;;;10.80;99.90;;;;;;5089714;28;20192;-73
2022/01/03 05:25:52;;;;;;;6.87;2.00;;;10.80;99.90;;;;;;5086712;28;20203;-72
2022/01/03 05:28:19;;;;;;;7.57;2.10;;;10.80;99.90;;;;;;5087589;28;21166;-73
2022/01/03 05:30:46;;;;;;;5.60;2.00;;;10.90;99.90;;;;;;5089398;28;20204;-72
2022/01/03 05:33:11;;;;;;;6.37;1.80;;;10.80;99.90;;;;;;5089498;28;20184;-72
2022/01/03 05:35:38;;;;;;;5.37;1.93;;;10.90;99.90;;;;;;5086027;28;20224;-72
2022/01/03 05:38:05;;;;;;;5.77;2.30;;;10.90;99.90;;;;;;5052632;28;20239;-73
2022/01/03 05:40:31;;;;;;;9.50;4.40;;;10.90;99.90;;;;;;5087783;28;20645;-73
2022/01/03 05:42:57;;;;;;;7.37;3.33;;;10.90;99.90;;;;;;5089401;28;20656;-73
2022/01/03 05:45:23;;;;;;;6.07;2.90;;;10.90;99.90;;;;;;5088404;28;20180;-72
2022/01/03 05:47:49;;;;;;;9.00;3.07;;;10.80;99.90;;;;;;5090167;28;20618;-73
2022/01/03 05:50:18;;;;;;;8.33;2.90;;;10.80;99.90;;;;;;5088766;28;20184;-72
2022/01/03 05:52:44;;;;;;;8.27;3.37;;;10.80;99.90;;;;;;5071587;28;20191;-73
2022/01/03 05:55:11;;;;;;;7.20;3.10;;;10.80;99.90;;;;;;5088460;28;20251;-73
2022/01/03 05:57:39;;;;;;;6.63;2.50;;;10.90;99.90;;;;;;5088763;28;20200;-73
2022/01/03 06:00:09;;;;;;;6.53;2.40;;;10.80;99.90;;;;;;5088878;28;20176;-72
2022/01/03 06:02:42;;;;;;;6.57;2.23;;;10.90;99.90;;;;;;5091369;28;20183;-72
2022/01/03 06:05:18;;;;;;;7.77;1.90;;;10.90;99.90;;;;;;5092947;28;20216;-72
2022/01/03 06:07:45;;;;;;;9.30;2.40;;;10.90;99.90;;;;;;5094120;28;20195;-73
2022/01/03 06:10:23;;;;;;;7.50;2.17;;;10.90;99.90;;;;;;5093128;28;20271;-72
2022/01/03 06:12:49;;;;;;;6.83;2.00;;;10.90;99.90;;;;;;5083599;28;20217;-72
2022/01/03 06:15:16;;;;;;;8.57;2.70;;;10.90;99.90;;;;;;5081576;28;20281;-73
2022/01/03 06:17:44;;;;;;;8.53;2.43;;;10.80;99.90;;;;;;5092702;28;20220;-73
2022/01/03 06:20:12;;;;;;;7.63;2.60;;;10.80;99.90;;;;;;5092699;28;20173;-72
2022/01/03 06:22:40;;;;;;;8.40;2.10;;;10.80;99.90;;;;;;5092056;28;20188;-74
2022/01/03 06:25:09;;;;;;;8.53;2.57;;;10.70;99.90;;;;;;5092274;28;20187;-73
2022/01/03 06:27:36;;;;;;;6.97;2.50;;;10.70;99.90;;;;;;5092149;28;20200;-72
2022/01/03 06:30:04;;;;;;;10.30;2.40;;;10.70;99.90;;;;;;5108469;28;20175;-74
2022/01/03 06:32:31;;;;;;;6.70;2.40;;;10.70;99.90;;;;;;5077385;28;20823;-73
2022/01/03 06:34:57;;;;;;;9.27;3.40;;;10.70;99.90;;;;;;5091456;28;20271;-72
2022/01/03 06:37:23;;;;;;;8.07;2.50;;;10.70;99.90;;;;;;5089788;28;20292;-72
2022/01/03 06:39:56;;;;;;;8.63;2.87;;;10.70;99.90;;;;;;5087087;28;20199;-72
2022/01/03 06:42:22;;;;;;;7.13;2.40;;;10.70;99.90;;;;;;5070517;28;20672;-72
2022/01/03 06:44:49;;;;;;;10.43;2.90;;;10.70;99.90;;;;;;5084798;28;20683;-73
2022/01/03 06:47:17;;;;;;;10.37;2.53;;;10.80;99.90;;;;;;5091175;28;20224;-73
2022/01/03 06:49:43;;;;;;;9.53;3.20;;;10.70;99.90;;;;;;5093147;28;20723;-72
2022/01/03 06:52:09;;;;;;;8.90;3.70;;;10.70;99.90;;;;;;5093139;28;20235;-73
2022/01/03 06:54:35;;;;;;;16.23;5.10;;;10.80;99.90;;;;;;5092139;28;20196;-73
2022/01/03 06:57:02;;;;;;;10.43;4.70;;;10.80;99.90;;;;;;5091691;28;20605;-73
2022/01/03 06:59:29;;;;;;;10.57;4.00;;;10.80;99.90;;;;;;5077903;28;20653;-73
2022/01/03 07:01:55;;;;;;;9.30;3.60;;;10.80;99.90;;;;;;5091229;28;20218;-72
2022/01/03 07:04:21;;;;;;;12.87;5.93;;;10.80;99.90;;;;;;5091874;28;20723;-73
2022/01/03 07:06:46;;;;;;;11.20;3.90;;;10.80;99.90;;;;;;5091870;28;20188;-73
2022/01/03 07:09:12;;;;;;;7.67;2.90;;;10.80;99.90;;;;;;5091715;28;20746;-73
2022/01/03 07:11:38;;;;;;;12.80;3.20;;;10.90;99.90;;;;;;5084899;28;20304;-74
2022/01/03 07:19:35;;;;;;;8.47;2.60;;;10.90;99.90;;;;;;5092561;28;20176;-73
2022/01/03 07:22:04;;;;;;;12.53;3.00;;;10.90;99.90;;;;;;5088013;28;20267;-73
2022/01/03 07:24:31;;;;;;;11.83;3.23;;;10.90;99.90;;;;;;5090722;28;20609;-73
2022/01/03 07:27:00;;;;;;;8.73;2.53;;;10.90;99.90;;;;;;5092270;28;20576;-73
2022/01/03 07:29:26;;;;;;;13.53;2.57;;;10.90;99.90;;;;;;5092535;28;20206;-73
2022/01/03 07:31:52;;;;;;;13.17;3.00;;;11.00;99.90;;;;;;5091134;28;20683;-73
2022/01/03 07:34:17;;;;;;;8.00;2.70;;;11.00;99.90;;;;;;5092717;28;20186;-73
2022/01/03 07:36:43;;;;;;;10.43;2.73;;;11.00;99.90;;;;;;5070444;28;20181;-73
2022/01/03 07:39:09;;;;;;;12.60;2.73;;;11.00;99.90;;;;;;5081522;28;20181;-73
2022/01/03 07:41:34;;;;;;;13.10;3.03;;;11.00;99.90;;;;;;5074288;28;20260;-73
2022/01/03 07:44:00;;;;;;;13.17;3.30;;;11.10;99.90;;;;;;5092627;28;20275;-73
2022/01/03 07:46:26;;;;;;;12.43;3.23;;;11.10;99.90;;;;;;5092385;28;20199;-73
2022/01/03 07:48:51;;;;;;;10.27;3.40;;;11.00;99.90;;;;;;5092011;28;20216;-73
2022/01/03 07:51:17;;;;;;;12.77;3.07;;;11.10;99.90;;;;;;5092035;28;20196;-73
2022/01/03 07:53:43;;;;;;;14.93;5.20;;;11.00;99.90;;;;;;5092350;28;20291;-73
2022/01/03 07:56:10;;;;;;;10.70;3.60;;;11.00;99.90;;;;;;5091777;28;20524;-73
2022/01/03 07:58:37;;;;;;;9.33;3.00;;;11.00;99.90;;;;;;5091425;28;20557;-74
2022/01/03 08:01:03;;;;;;;10.13;2.83;;;11.00;99.90;;;;;;5087080;28;20541;-73
2022/01/03 08:03:29;;;;;;;15.60;4.80;;;11.00;99.90;;;;;;5088986;28;20552;-73
2022/01/03 08:05:55;;;;;;;10.77;3.73;;;11.00;99.90;;;;;;5090837;28;20183;-74
2022/01/03 08:08:21;;;;;;;15.03;4.57;;;11.00;99.90;;;;;;5090378;28;20291;-73
2022/01/03 08:10:47;;;;;;;11.40;3.70;;;11.10;99.90;;;;;;5090121;28;20598;-73
2022/01/03 08:13:14;;;;;;;15.07;5.73;;;11.10;99.90;;;;;;5091516;28;20310;-74
2022/01/03 08:15:40;;;;;;;12.57;3.90;;;11.10;99.90;;;;;;5088360;28;20544;-74
2022/01/03 08:18:06;;;;;;;8.33;2.87;;;11.10;99.90;;;;;;5086587;28;20212;-74
2022/01/03 08:20:32;;;;;;;13.73;3.73;;;11.10;99.90;;;;;;5084310;28;20180;-74
2022/01/03 08:22:58;;;;;;;16.03;5.13;;;11.20;99.90;;;;;;5085971;28;20267;-74
2022/01/03 08:25:24;;;;;;;14.73;3.00;;;11.20;99.90;;;;;;5084841;28;20192;-74
2022/01/03 08:27:50;;;;;;;10.17;2.97;;;11.20;99.90;;;;;;5067110;28;21356;-74
2022/01/03 08:30:16;;;;;;;8.83;2.33;;;11.20;99.90;;;;;;5086171;28;20177;-74
2022/01/03 08:32:42;;;;;;;10.47;2.80;;;11.20;99.90;;;;;;5086144;28;20272;-74
2022/01/03 08:35:08;;;;;;;8.67;2.90;;;11.20;99.90;;;;;;5085727;28;20191;-74
2022/01/03 08:37:35;;;;;;;13.20;3.20;;;11.20;99.90;;;;;;5085340;28;20205;-74
2022/01/03 08:40:04;;;;;;;9.83;2.70;;;11.20;99.90;;;;;;5084709;28;20194;-74
2022/01/03 08:42:34;;;;;;;9.47;2.73;;;11.20;99.90;;;;;;5084149;28;20176;-75
2022/01/03 08:45:02;;;;;;;9.70;2.73;;;11.20;99.90;;;;;;5067605;28;20239;-74
2022/01/03 08:47:28;;;;;;;10.97;2.87;;;11.20;99.90;;;;;;5085494;28;20208;-74
2022/01/03 08:49:54;;;;;;;9.43;2.60;;;11.20;99.90;;;;;;5086181;28;20188;-75
2022/01/03 08:52:19;;;;;;;9.60;3.40;;;11.20;99.90;;;;;;5083517;28;20200;-74
2022/01/03 08:54:45;;;;;;;10.27;3.10;;;11.20;99.90;;;;;;5066712;28;20763;-75
2022/01/03 08:57:11;;;;;;;9.53;2.77;;;11.20;99.90;;;;;;5085564;28;20200;-74
2022/01/03 08:59:36;;;;;;;10.17;2.80;;;11.20;99.90;;;;;;5084892;28;20184;-74
2022/01/03 09:02:02;;;;;;;8.70;2.80;;;11.20;99.90;;;;;;5082952;28;20188;-74
2022/01/03 09:04:28;;;;;;;8.10;2.60;;;11.20;99.90;;;;;;5085770;28;20184;-74
2022/01/03 09:06:54;;;;;;;11.67;3.07;;;11.20;99.90;;;;;;5084753;28;20250;-75
2022/01/03 09:09:20;;;;;;;12.63;3.27;;;11.20;99.90;;;;;;5083471;28;20223;-74
2022/01/03 09:11:46;;;;;;;11.03;2.87;;;11.20;99.90;;;;;;5083867;28;20236;-73
2022/01/03 09:14:11;;;;;;;7.43;2.47;;;11.10;99.90;;;;;;5086136;28;20172;-74
2022/01/03 09:16:37;;;;;;;10.03;3.40;;;11.10;99.90;;;;;;5081218;28;20180;-74
2022/01/03 09:19:03;;;;;;;7.93;2.97;;;11.10;99.90;;;;;;5083371;28;20593;-75
2022/01/03 09:21:29;;;;;;;11.53;3.07;;;11.20;99.90;;;;;;5084833;28;20179;-74
2022/01/03 09:24:18;;;;;;;8.27;2.80;;;11.20;99.90;;;;;;5083976;28;20538;-74
2022/01/03 09:29:26;;;;;;;7.90;2.50;;;11.30;99.90;;;;;;5083264;28;20687;-74
2022/01/03 09:31:51;;;;;;;7.50;2.00;;;11.30;99.90;;;;;;5081808;28;20250;-74
2022/01/03 09:34:17;;;;;;;5.60;2.00;;;11.30;99.90;;;;;;5084578;28;20251;-74
2022/01/03 09:36:43;;;;;;;8.00;2.13;;;11.40;99.90;;;;;;5084746;28;20239;-74
2022/01/03 09:39:09;;;;;;;8.13;2.93;;;11.40;99.90;;;;;;5091772;28;20207;-74
2022/01/03 09:41:43;;;;;;;6.67;2.17;;;11.40;99.90;;;;;;5092700;28;20576;-75
2022/01/03 09:44:11;;;;;;;7.30;2.20;;;11.40;99.90;;;;;;5089204;28;20587;-74
2022/01/03 09:46:40;;;;;;;7.90;2.63;;;11.40;99.90;;;;;;5090662;28;20199;-74
2022/01/03 09:49:08;;;;;;;10.47;2.40;;;11.40;99.90;;;;;;5091004;28;20199;-74
2022/01/03 09:51:34;;;;;;;10.73;2.43;;;11.40;99.90;;;;;;5091481;28;20374;-74
2022/01/03 09:54:05;;;;;;;9.67;2.10;;;11.50;99.90;;;;;;5091105;28;20271;-74
2022/01/03 09:56:32;;;;;;;6.93;2.50;;;11.50;99.90;;;;;;5089124;28;20172;-74
2022/01/03 09:59:00;;;;;;;8.83;2.97;;;11.50;99.90;;;;;;5090366;28;20188;-74
2022/01/03 10:01:27;;;;;;;8.97;2.70;;;11.50;99.90;;;;;;5087735;28;20180;-75
2022/01/03 10:03:53;;;;;;;10.60;2.30;;;11.60;99.90;;;;;;5090679;28;20188;-76
2022/01/03 10:06:20;;;;;;;8.17;2.50;;;11.60;99.90;;;;;;5090973;28;20172;-75
2022/01/03 10:08:47;;;;;;;9.37;2.73;;;11.60;99.90;;;;;;5090753;28;20193;-74
2022/01/03 10:11:13;;;;;;;11.33;2.90;;;11.70;99.90;;;;;;5092215;28;20303;-74
2022/01/03 10:13:40;;;;;;;10.00;2.90;;;11.70;99.90;;;;;;5091229;28;20184;-74
2022/01/03 10:16:07;;;;;;;9.60;2.70;;;11.70;99.90;;;;;;5091060;28;20261;-75
2022/01/03 10:18:33;;;;;;;9.63;2.70;;;11.70;99.90;;;;;;5088510;28;20231;-74
2022/01/03 10:21:04;;;;;;;9.37;3.00;;;11.80;99.90;;;;;;5089922;28;20540;-75
2022/01/03 10:23:31;;;;;;;8.83;2.70;;;11.90;99.90;;;;;;5091950;28;20196;-75
2022/01/03 10:26:17;;;;;;;10.53;2.87;;;12.00;99.90;;;;;;5073243;28;20683;-75
2022/01/03 10:28:43;;;;;;;12.27;2.83;;;12.00;99.90;;;;;;5088717;28;20548;-74
2022/01/03 10:31:20;;;;;;;11.63;3.00;;;12.00;99.90;;;;;;5087358;28;20709;-75
2022/01/03 10:34:03;;;;;;;10.67;2.53;;;12.10;99.90;;;;;;5088501;28;20234;-76
2022/01/03 10:36:31;;;;;;;10.33;2.80;;;12.00;99.90;;;;;;5090153;28;21857;-75
2022/01/03 10:38:59;;;;;;;11.90;3.60;;;12.00;99.90;;;;;;5089048;28;20545;-74
2022/01/03 10:41:25;;;;;;;8.77;2.90;;;12.00;99.90;;;;;;5088279;28;20173;-74
2022/01/03 10:43:55;;;;;;;7.87;2.47;;;12.00;99.90;;;;;;5090602;28;20697;-74
2022/01/03 10:46:23;;;;;;;10.37;2.80;;;12.00;99.90;;;;;;5088806;28;20211;-76
2022/01/03 10:48:50;;;;;;;12.53;2.63;;;12.00;99.90;;;;;;5085704;28;20203;-75
2022/01/03 10:51:27;;;;;;;10.23;2.60;;;11.90;99.90;;;;;;5085730;28;20204;-75
2022/01/03 10:53:55;;;;;;;12.57;2.60;;;11.90;99.90;;;;;;5086962;28;20260;-74
2022/01/03 10:56:30;;;;;;;13.27;3.17;;;11.80;99.90;;;;;;5087417;28;21005;-75
2022/01/03 10:59:21;;;;;;;9.60;2.70;;;11.90;99.90;;;;;;5087645;28;20572;-74
2022/01/03 11:02:01;;;;;;;11.57;3.43;;;11.90;99.90;;;;;;5085487;28;20185;-75
2022/01/03 11:04:43;;;;;;;13.97;3.30;;;11.90;99.90;;;;;;5087836;28;20184;-75
2022/01/03 11:13:23;;;;;;;9.63;3.20;;;11.90;99.90;;;;;;5088800;28;20189;-76
2022/01/03 11:15:56;;;;;;;9.13;2.80;;;11.90;99.90;;;;;;5082174;28;20204;-75
2022/01/03 11:18:21;;;;;;;11.83;3.90;;;11.90;99.90;;;;;;5082330;28;20208;-75
2022/01/03 11:21:11;;;;;;;9.27;2.97;;;12.00;99.90;;;;;;5086843;28;20187;-77
2022/01/03 11:23:38;;;;;;;11.93;3.10;;;12.00;99.90;;;;;;5087061;28;20181;-76
2022/01/03 11:26:09;;;;;;;10.43;2.70;;;12.10;99.90;;;;;;5087468;28;20180;-75
2022/01/03 11:28:35;;;;;;;11.17;3.10;;;12.10;99.90;;;;;;5084523;28;20220;-75
2022/01/03 11:31:02;;;;;;;12.00;2.70;;;12.20;99.90;;;;;;5083697;28;20297;-74
2022/01/03 11:33:29;;;;;;;9.27;2.97;;;12.20;99.90;;;;;;5087844;28;20183;-75
2022/01/03 11:35:57;;;;;;;11.60;2.90;;;12.20;99.90;;;;;;5084347;28;20204;-75
2022/01/03 11:38:28;;;;;;;11.93;3.30;;;12.20;99.90;;;;;;5083087;28;20200;-75
2022/01/03 11:40:53;;;;;;;17.87;2.93;;;12.20;99.90;;;;;;5083101;28;20206;-75
2022/01/03 11:43:19;;;;;;;13.50;3.40;;;12.20;99.90;;;;;;5080713;28;20184;-76
2022/01/03 11:45:45;;;;;;;11.63;2.70;;;12.20;99.90;;;;;;5079466;28;20199;-75
2022/01/03 11:48:12;;;;;;;12.57;3.30;;;12.20;99.90;;;;;;5082392;28;20629;-75
2022/01/03 11:50:39;;;;;;;11.33;2.60;;;12.20;99.90;;;;;;5082253;28;20201;-76
2022/01/03 11:53:06;;;;;;;11.57;2.60;;;12.10;99.90;;;;;;5087353;28;20177;-75
2022/01/03 11:55:34;;;;;;;10.80;3.00;;;12.10;99.90;;;;;;5086444;28;20252;-76
2022/01/03 12:06:00;;;;;;;9.00;2.57;;;12.10;99.90;;;;;;5084010;28;20203;-73
2022/01/03 12:08:30;;;;;;;10.80;2.60;;;12.20;99.90;;;;;;5083511;28;20184;-73
2022/01/03 12:11:00;;;;;;;13.07;3.07;;;12.20;99.90;;;;;;5085267;28;20211;-74
2022/01/03 12:13:51;;;;;;;11.00;2.40;;;12.20;99.90;;;;;;5084016;28;20169;-74
2022/01/03 12:16:19;;;;;;;9.13;2.70;;;12.20;99.90;;;;;;5082280;28;20208;-73
2022/01/03 12:18:59;;;;;;;10.27;3.20;;;12.20;99.90;;;;;;5085967;28;20637;-74
2022/01/03 12:21:50;;;;;;;11.93;2.70;;;12.30;99.90;;;;;;5083843;28;20188;-73
2022/01/03 12:24:43;;;;;;;14.77;3.27;;;12.30;99.90;;;;;;5086024;28;20172;-73
2022/01/03 12:27:12;;;;;;;10.83;2.70;;;12.30;99.90;;;;;;5067464;28;20213;-74
2022/01/03 12:29:50;;;;;;;12.70;2.70;;;12.30;99.90;;;;;;5091271;28;20192;-73
2022/01/03 12:32:15;;;;;;;9.67;2.50;;;12.20;99.90;;;;;;5075323;28;20246;-74
2022/01/03 12:34:42;;;;;;;10.27;3.90;;;12.30;99.90;;;;;;5084001;28;21079;-74
2022/01/03 12:37:16;;;;;;;12.40;3.50;;;12.30;99.90;;;;;;5089640;28;20219;-74
2022/01/03 12:40:04;;;;;;;9.63;2.50;;;12.30;99.90;;;;;;5086202;28;20220;-73
2022/01/03 12:45:16;;;;;;;10.33;2.80;;;12.20;99.90;;;;;;5079878;28;20180;-73
2022/01/03 12:47:43;;;;;;;11.57;3.00;;;12.30;99.90;;;;;;5076454;28;20609;-73
2022/01/03 12:50:23;;;;;;;9.47;2.90;;;12.30;99.90;;;;;;5085075;28;20172;-73
2022/01/03 12:52:49;;;;;;;12.10;3.00;;;12.30;99.90;;;;;;5067501;28;20228;-71
2022/01/03 12:55:36;;;;;;;11.00;2.60;;;12.30;99.90;;;;;;5076170;28;20177;-71
2022/01/03 12:58:34;;;;;;;12.50;6.10;;;12.30;99.90;;;;;;5085911;28;20200;-74
2022/01/03 13:01:10;;;;;;;12.43;3.70;;;12.40;99.90;;;;;;5088791;28;20587;-74
2022/01/03 13:03:37;;;;;;;9.43;3.70;;;12.40;99.90;;;;;;5088442;28;20188;-72
2022/01/03 13:06:09;;;;;;;7.60;2.67;;;12.40;99.90;;;;;;5079157;28;20205;-72
2022/01/03 13:08:55;;;;;;;6.53;1.73;;;12.40;99.90;;;;;;5080464;28;20231;-71
2022/01/03 13:11:33;;;;;;;9.83;1.90;;;12.40;99.90;;;;;;5093358;27;20223;-74
2022/01/03 13:14:15;;;;;;;5.27;2.10;;;12.40;99.90;;;;;;5089471;28;20310;-75
2022/01/03 13:16:44;;;;;;;10.33;2.00;;;12.40;99.90;;;;;;5089254;28;20272;-75
2022/01/03 13:19:16;;;;;;;8.30;2.10;;;12.40;99.90;;;;;;5091917;28;20177;-74